Commit graph

105 commits

Author SHA1 Message Date
c807bf8827 SpaceAPI: people now present 2025-04-04 23:01:52 +02:00
81eee3f638 SpaceAPI: network traffic sensor 2025-04-04 22:40:23 +02:00
30e06880e0 SpaceAPI: network traffic sensor 2025-04-04 22:14:26 +02:00
a5fd0ccdc2 SpaceAPI: sensors draft 2025-04-04 21:27:46 +02:00
3c63d52c8c Sensor: no drafts 2025-04-04 19:07:13 +02:00
d83e92a6e2 Sensor: Network Traffic 2025-04-04 18:22:40 +02:00
05dd4957ba Admin Panel: custom styles 2025-04-04 16:14:16 +02:00
bbc3db6e19 Update Strapi 2025-04-04 14:36:45 +02:00
8345021a32 SpaceAPI: linked_spaces 2025-04-04 00:00:34 +02:00
a2d07dfa98 SpaceAPI: membership_plans 2025-04-03 23:57:33 +02:00
1b4dc50c6c SpaceAPI: links 2025-04-03 23:51:59 +02:00
80793d0d76 SpaceAPI: projects 2025-04-03 22:38:57 +02:00
c8112d608f SpaceAPI: feeds 2025-04-03 22:35:42 +02:00
6a7a9d8d1b SpaceAPI: some fields 2025-04-03 22:20:28 +02:00
d7a40831d0 SpaceAPI: custom endpoint 2025-04-02 15:54:14 +02:00
5e788e7a5a Update Strapi 2025-04-02 11:50:06 +02:00
c8f3481c42 Sensor: Network Traffic 2025-04-02 01:00:38 +02:00
8798126dc4 Sensor: People Now Present 2025-04-02 00:51:13 +02:00
7861af8a03 Sensor: Total Member Count 2025-04-02 00:14:50 +02:00
bb81b89795 Sensor: Account Balance 2025-04-02 00:11:54 +02:00
b758d4e4ec Sensor: Network Connections 2025-04-02 00:07:32 +02:00
95d6a5f4ac Sensors: Wind 2025-04-01 23:40:11 +02:00
27d259b31c Sensors: Power Generation 2025-04-01 23:01:59 +02:00
94b1667f85 Sensors: Power Consumption 2025-04-01 22:58:34 +02:00
4ece4eb1c0 Sensors: Beverage Supplies 2025-04-01 22:32:07 +02:00
087b0a4918 Sensors: Humidity 2025-04-01 22:24:59 +02:00
751d8f7c63 Sensors: Radiation 2025-04-01 22:17:43 +02:00
ec72ab67ce Sensors: Barometer 2025-04-01 21:10:35 +02:00
87a73c7eb9 Sensors: Door Locked: rename endpoints 2025-04-01 21:05:39 +02:00
e2c01abfd0 Sensors: Door Locked 2025-04-01 21:00:20 +02:00
a0b47f8d88 Sensors: CO2 2025-04-01 20:10:56 +02:00
e693821e3e Sensors: Temperature: display name 2025-04-01 20:06:38 +02:00
fe49bf8307 Sensors: Temperature 2025-04-01 20:02:25 +02:00
1708cda514 Hackspace: add linked_spaces 2025-04-01 19:29:30 +02:00
14d08cd7b2 Hackspace: add membership_plans 2025-04-01 15:32:39 +02:00
ffc7acade6 Hackspace: add links 2025-04-01 15:05:57 +02:00
ae1b629c86 Hackspace: add projects 2025-04-01 13:07:38 +02:00
f0d1269d21 Hackspace: add feeds 2025-04-01 13:03:19 +02:00
4a1bbe106c Hackspace: add feed 2025-04-01 12:59:01 +02:00
c18112bfe5 Types: generated 2025-04-01 12:54:44 +02:00
7eba0b9622 Events: init 2025-04-01 12:54:37 +02:00
64961b9de5 Types: generated 2025-04-01 10:43:11 +02:00
b9293904a9 Hackspace: add cams 2025-04-01 10:43:03 +02:00
dba8d5ca48 Components: unify display names 2025-04-01 10:42:38 +02:00
8416e15af2 Types: generated 2025-03-31 18:03:35 +02:00
1173236c07 Hackspace: add spacefed 2025-03-31 18:03:25 +02:00
4d3e56d3c3 Types: generated 2025-03-31 17:58:58 +02:00
bccbdee349 Hackspace: add location 2025-03-31 17:58:47 +02:00
89de408fe2 Hackspace: contacts: add keymasters 2025-03-31 17:58:03 +02:00
c993d6f4e5 Types: generated 2025-03-27 09:52:08 +01:00